Time;durP1;ratioP1;P1;durP2;ratioP2;P2;SDS_P1;SDS_P2;PMS_P1;PMS_P2;Temp;Humidity;BMP_temperature;BMP_pressure;BME280_temperature;BME280_humidity;BME280_pressure;Samples;Min_cycle;Max_cycle;Signal;HPM_P1;HPM_P2
2022/06/15 00:01:04;;;;;;;2.33;1.07;;;;;;;12.09;100.00;99699.20;1752408;80;21067;-67
2022/06/15 00:03:36;;;;;;;3.05;1.22;;;;;;;12.05;100.00;99702.22;1766348;80;21568;-67
2022/06/15 00:06:12;;;;;;;2.75;1.15;;;;;;;11.98;100.00;99699.81;1707542;84;20995;-67
2022/06/15 00:08:41;;;;;;;3.67;0.90;;;;;;;11.95;100.00;99701.74;1756868;80;21042;-66
2022/06/15 00:11:14;;;;;;;3.67;0.90;;;;;;;11.96;100.00;99704.75;1755188;80;20983;-67
2022/06/15 00:13:43;;;;;;;2.22;1.12;;;;;;;11.98;100.00;99699.27;1765189;80;21562;-67
2022/06/15 00:16:12;;;;;;;5.55;1.02;;;;;;;11.97;100.00;99700.93;1720970;82;21589;-68
2022/06/15 00:18:40;;;;;;;3.98;1.20;;;;;;;11.90;100.00;99700.42;1750788;80;21118;-66
2022/06/15 00:21:07;;;;;;;4.25;1.10;;;;;;;11.83;100.00;99705.38;1752637;80;21055;-67
2022/06/15 00:23:35;;;;;;;5.50;1.20;;;;;;;11.77;100.00;99710.56;1756205;80;21062;-67
2022/06/15 00:26:04;;;;;;;3.25;1.30;;;;;;;11.73;100.00;99705.39;1748464;80;20968;-67
2022/06/15 00:28:30;;;;;;;4.37;1.10;;;;;;;11.73;100.00;99702.67;1708810;82;21620;-66
2022/06/15 00:30:58;;;;;;;3.90;1.00;;;;;;;11.74;100.00;99709.77;1752780;80;21504;-67
2022/06/15 00:33:26;;;;;;;3.37;1.00;;;;;;;11.71;100.00;99705.69;1753707;80;21489;-67
2022/06/15 00:35:59;;;;;;;2.42;1.10;;;;;;;11.62;100.00;99711.41;1755432;80;21020;-68
2022/06/15 00:38:36;;;;;;;3.75;1.25;;;;;;;11.53;100.00;99712.27;1771786;80;21097;-67
2022/06/15 00:41:04;;;;;;;4.70;1.15;;;;;;;11.47;100.00;99711.48;1753869;80;21474;-66
2022/06/15 00:43:43;;;;;;;3.00;1.05;;;;;;;11.44;100.00;99714.20;1764005;80;22047;-67
2022/06/15 00:46:18;;;;;;;2.60;1.10;;;;;;;11.42;100.00;99712.86;1709674;84;21082;-67
2022/06/15 00:48:49;;;;;;;3.22;1.20;;;;;;;11.34;100.00;99704.70;1704624;82;21063;-67
2022/06/15 00:51:15;;;;;;;4.35;1.20;;;;;;;11.26;100.00;99712.10;1753886;80;20992;-67
2022/06/15 00:53:41;;;;;;;;;;;;;;;11.17;100.00;99712.37;1744411;80;21051;-67
2022/06/15 00:56:09;;;;;;;3.35;1.10;;;;;;;11.14;100.00;99710.21;1742981;81;20109;-68
2022/06/15 00:58:38;;;;;;;3.00;1.10;;;;;;;11.10;100.00;99705.04;1762733;80;21059;-67
2022/06/15 01:01:05;;;;;;;3.08;0.93;;;;;;;11.09;100.00;99708.06;1759025;80;20999;-67
2022/06/15 01:03:32;;;;;;;2.67;1.20;;;;;;;11.05;100.00;99707.80;1747696;80;21075;-67
2022/06/15 01:06:23;;;;;;;;;;;;;;;10.97;100.00;99700.99;1724233;81;21498;-67
2022/06/15 01:09:01;;;;;;;4.78;1.47;;;;;;;10.91;100.00;99706.16;1758121;80;20090;-67
2022/06/15 01:11:51;;;;;;;3.58;1.10;;;;;;;10.84;100.00;99709.70;1743092;80;21055;-68
2022/06/15 01:14:23;;;;;;;1.82;1.20;;;;;;;10.86;100.00;99714.89;1756291;80;21466;-67
2022/06/15 01:16:57;;;;;;;3.67;1.12;;;;;;;10.88;100.00;99705.34;1740901;81;20984;-67
2022/06/15 01:20:04;;;;;;;3.85;1.20;;;;;;;10.87;100.00;99708.36;1748895;80;21063;-68
2022/06/15 01:22:51;;;;;;;2.50;1.12;;;;;;;10.83;100.00;99704.55;1741449;80;21079;-67
2022/06/15 01:25:39;;;;;;;3.65;1.32;;;;;;;10.74;100.00;99706.99;1749141;80;20972;-67
2022/06/15 01:28:29;;;;;;;5.65;1.15;;;;;;;10.75;100.00;99707.81;1745600;80;21083;-69
2022/06/15 01:31:03;;;;;;;3.27;1.27;;;;;;;10.80;100.00;99711.91;1764257;80;21010;-71
2022/06/15 01:33:40;;;;;;;4.40;1.20;;;;;;;10.84;100.00;99713.00;1761558;80;21039;-69
2022/06/15 01:36:13;;;;;;;3.40;1.07;;;;;;;10.83;100.00;99708.63;1717946;82;21000;-69
2022/06/15 01:39:09;;;;;;;3.58;1.00;;;;;;;10.80;100.00;99715.99;1685822;82;21122;-68
2022/06/15 01:41:58;;;;;;;3.98;1.25;;;;;;;10.80;100.00;99705.92;1758067;80;21000;-70
2022/06/15 01:44:36;;;;;;;2.77;1.00;;;;;;;10.84;100.00;99711.64;1709900;80;21574;-69
2022/06/15 01:47:10;;;;;;;2.65;1.42;;;;;;;10.86;100.00;99711.63;1751194;81;20991;-69
2022/06/15 01:49:45;;;;;;;3.77;1.12;;;;;;;10.85;100.00;99711.89;1742309;80;21043;-69
2022/06/15 01:52:15;;;;;;;3.40;0.90;;;;;;;10.80;100.00;99714.63;1741990;80;21675;-70
2022/06/15 01:54:47;;;;;;;2.70;1.02;;;;;;;10.79;100.00;99725.24;1739144;80;21628;-69
2022/06/15 01:57:14;;;;;;;3.55;1.02;;;;;;;10.84;100.00;99720.59;1752696;80;21050;-68
2022/06/15 01:59:48;;;;;;;4.85;1.70;;;;;;;10.87;100.00;99724.70;1745022;80;21024;-69
2022/06/15 02:02:51;;;;;;;5.03;1.40;;;;;;;10.87;100.00;99720.62;1704810;84;21102;-68
2022/06/15 02:05:26;;;;;;;2.60;1.30;;;;;;;10.83;100.00;99718.16;1720423;80;21012;-70
2022/06/15 02:08:14;;;;;;;3.80;1.17;;;;;;;10.83;100.00;99724.43;1755694;80;21050;-68
2022/06/15 02:10:58;;;;;;;2.98;0.98;;;;;;;10.89;100.00;99724.69;1735994;80;20975;-68
2022/06/15 02:13:52;;;;;;;2.67;1.75;;;;;;;10.94;100.00;99723.88;1765556;80;21080;-70
2022/06/15 02:16:24;;;;;;;3.75;1.65;;;;;;;10.95;100.00;99726.84;1702055;82;21012;-69
2022/06/15 02:18:53;;;;;;;3.62;1.50;;;;;;;10.91;100.00;99726.58;1708638;83;21091;-70
2022/06/15 02:21:20;;;;;;;4.15;1.15;;;;;;;10.91;100.00;99734.75;1760645;80;21008;-69
2022/06/15 02:23:50;;;;;;;4.53;1.20;;;;;;;10.90;100.00;99722.25;1699443;83;21110;-69
2022/06/15 02:26:17;;;;;;;4.55;1.50;;;;;;;11.00;100.00;99736.39;1683415;83;20996;-69
2022/06/15 02:28:50;;;;;;;3.10;1.55;;;;;;;11.02;100.00;99744.30;1661221;83;21547;-69
2022/06/15 02:31:17;;;;;;;5.17;1.47;;;;;;;11.01;100.00;99746.75;1753168;80;20972;-69
2022/06/15 02:33:51;;;;;;;9.25;1.60;;;;;;;10.97;100.00;99747.30;1750349;80;21078;-69
2022/06/15 02:36:18;;;;;;;5.28;1.50;;;;;;;10.98;100.00;99754.92;1740082;80;21427;-68
2022/06/15 02:38:49;;;;;;;4.10;1.35;;;;;;;11.03;100.00;99755.45;1757631;80;21074;-69
2022/06/15 02:41:19;;;;;;;8.30;2.22;;;;;;;11.08;100.00;99752.19;1770623;80;21612;-70
2022/06/15 02:43:51;;;;;;;4.75;1.82;;;;;;;11.14;100.00;99752.44;1745226;80;21099;-69
2022/06/15 02:46:18;;;;;;;5.67;1.82;;;;;;;11.18;100.00;99752.70;1739926;80;20999;-69
2022/06/15 02:48:45;;;;;;;4.47;1.70;;;;;;;11.18;100.00;99754.89;1749510;80;21077;-69
2022/06/15 02:51:59;;;;;;;6.87;1.70;;;;;;;11.18;100.00;99760.34;1744767;80;21514;-68
2022/06/15 02:54:39;;;;;;;2.80;1.30;;;;;;;11.22;100.00;99763.33;1663662;85;21642;-69
2022/06/15 02:57:17;;;;;;;3.20;1.40;;;;;;;11.31;100.00;99763.85;1755577;80;21596;-69
2022/06/15 02:59:45;;;;;;;3.20;1.50;;;;;;;11.42;100.00;99762.73;1761525;80;20935;-68
2022/06/15 03:02:14;;;;;;;3.37;1.60;;;;;;;11.48;100.00;99768.44;1730443;81;21521;-67
2022/06/15 03:04:45;;;;;;;3.98;1.20;;;;;;;11.58;100.00;99771.70;1769727;80;21452;-68
2022/06/15 03:07:12;;;;;;;3.25;1.35;;;;;;;11.69;100.00;99770.55;1745812;80;21054;-68
2022/06/15 03:09:40;;;;;;;4.17;1.35;;;;;;;11.89;100.00;99771.06;1758994;80;21066;-69
2022/06/15 03:12:08;;;;;;;4.33;1.30;;;;;;;12.15;100.00;99763.02;1747429;81;21529;-68
2022/06/15 03:14:38;;;;;;;3.90;1.20;;;;;;;12.37;100.00;99768.89;1752026;80;21050;-67
2022/06/15 03:17:06;;;;;;;3.83;1.00;;;;;;;12.65;100.00;99766.52;1756289;81;20991;-68
2022/06/15 03:19:35;;;;;;;3.83;1.55;;;;;;;12.96;100.00;99761.09;1751120;80;21031;-68
2022/06/15 03:22:04;;;;;;;7.37;1.15;;;;;;;13.26;100.00;99766.84;1722218;82;21160;-69
2022/06/15 03:24:33;;;;;;;4.78;1.25;;;;;;;13.52;100.00;99752.36;1750947;80;21127;-69
2022/06/15 03:27:01;;;;;;;4.75;1.12;;;;;;;13.74;100.00;99758.13;1751064;80;21018;-68
2022/06/15 03:29:30;;;;;;;3.30;1.42;;;;;;;13.94;100.00;99760.61;1753150;80;21097;-69
2022/06/15 03:31:59;;;;;;;3.42;1.37;;;;;;;14.12;100.00;99763.93;1749405;81;21053;-68
2022/06/15 03:34:26;;;;;;;3.45;1.27;;;;;;;14.26;100.00;99763.47;1750742;81;21069;-69
2022/06/15 03:36:52;;;;;;;;;;;;;;;14.47;100.00;99764.56;1759481;80;20982;-70
2022/06/15 03:39:19;;;;;;;3.27;1.10;;;;;;;14.62;100.00;99763.79;1757241;80;20158;-69
2022/06/15 03:41:48;;;;;;;4.08;1.07;;;;;;;14.65;100.00;99765.11;1751452;80;21511;-69
2022/06/15 03:44:15;;;;;;;3.22;1.15;;;;;;;14.82;100.00;99762.64;1712739;80;21031;-70
2022/06/15 03:46:42;;;;;;;3.83;1.02;;;;;;;14.98;100.00;99766.78;1760941;80;21030;-70
2022/06/15 03:49:14;;;;;;;3.70;1.10;;;;;;;15.24;100.00;99775.35;1750634;80;21070;-69
2022/06/15 03:51:43;;;;;;;2.25;0.93;;;;;;;15.45;100.00;99772.50;1712636;80;21035;-69
2022/06/15 03:54:10;;;;;;;3.47;1.02;;;;;;;15.66;100.00;99775.73;1762367;80;21113;-69
2022/06/15 03:56:43;;;;;;;7.03;1.42;;;;;;;15.84;100.00;99776.16;1751319;80;20976;-69
2022/06/15 03:59:12;;;;;;;3.37;1.00;;;;;;;16.20;100.00;99772.94;1757177;80;21078;-69
2022/06/15 04:01:39;;;;;;;4.62;1.00;;;;;;;16.56;100.00;99771.61;1754890;80;20987;-68
2022/06/15 04:04:07;;;;;;;3.33;1.02;;;;;;;16.72;100.00;99774.23;1749871;80;21034;-69
2022/06/15 04:06:36;;;;;;;2.12;0.88;;;;;;;16.86;100.00;99772.25;1722289;82;21050;-69
2022/06/15 04:09:05;;;;;;;3.85;0.90;;;;;;;17.01;100.00;99771.63;1734721;81;21036;-70
2022/06/15 04:14:21;;;;;;;3.43;1.10;;;;;;;16.98;100.00;99773.06;1751817;81;21106;-69
2022/06/15 04:16:55;;;;;;;2.22;0.80;;;;;;;16.84;100.00;99773.69;1699468;83;21280;-69
2022/06/15 04:19:26;;;;;;;3.77;1.10;;;;;;;16.73;100.00;99778.63;1714426;82;21130;-68
2022/06/15 04:21:54;;;;;;;2.67;1.00;;;;;;;16.75;100.00;99781.07;1699893;82;21506;-68
2022/06/15 04:24:23;;;;;;;3.72;1.00;;;;;;;16.79;100.00;99780.70;1749690;82;21046;-68
2022/06/15 04:26:50;;;;;;;4.10;1.10;;;;;;;16.69;100.00;99780.92;1709571;83;21035;-69
2022/06/15 04:29:20;;;;;;;2.02;0.95;;;;;;;16.60;100.00;99779.48;1713582;82;21062;-68
2022/06/15 04:31:48;;;;;;;3.50;0.98;;;;;;;16.68;100.00;99785.63;1762542;80;21510;-68
2022/06/15 04:34:17;;;;;;;3.85;0.95;;;;;;;16.84;100.00;99782.75;1753652;81;21129;-68
2022/06/15 04:36:45;;;;;;;4.28;0.88;;;;;;;16.98;100.00;99781.88;1765362;80;21473;-68
2022/06/15 04:39:14;;;;;;;2.98;0.75;;;;;;;17.01;100.00;99776.56;1757634;80;21562;-67
2022/06/15 04:41:42;;;;;;;4.10;0.80;;;;;;;16.89;100.00;99779.08;1705510;83;21058;-69
2022/06/15 04:44:11;;;;;;;3.95;0.98;;;;;;;16.90;100.00;99786.18;1752474;80;21067;-71
2022/06/15 04:46:39;;;;;;;3.15;0.78;;;;;;;17.06;100.00;99781.13;1752661;80;21097;-67
2022/06/15 04:49:08;;;;;;;3.10;0.85;;;;;;;17.13;100.00;99788.37;1751484;80;21094;-68
2022/06/15 04:51:41;;;;;;;2.25;1.05;;;;;;;17.20;100.00;99782.69;1752136;80;21145;-68
2022/06/15 04:54:09;;;;;;;2.37;0.62;;;;;;;17.29;100.00;99790.98;1742999;80;21043;-68
2022/06/15 04:56:39;;;;;;;2.55;0.82;;;;;;;17.32;100.00;99787.63;1749928;80;21530;-69
2022/06/15 04:59:07;;;;;;;2.85;0.70;;;;;;;17.37;100.00;99784.16;1704830;83;21055;-68
2022/06/15 05:01:34;;;;;;;2.70;0.85;;;;;;;17.50;100.00;99787.16;1745802;80;21487;-68
2022/06/15 05:04:02;;;;;;;2.33;0.80;;;;;;;17.63;100.00;99784.33;1744231;80;21067;-68
2022/06/15 05:06:34;;;;;;;3.42;1.05;;;;;;;17.62;100.00;99786.02;1741248;80;21001;-67
2022/06/15 05:09:02;;;;;;;4.67;0.85;;;;;;;17.58;100.00;99779.51;1745045;80;21051;-67
2022/06/15 05:11:29;;;;;;;3.92;1.05;;;;;;;17.63;100.00;99786.27;1743918;80;21004;-68
2022/06/15 05:13:56;;;;;;;2.45;0.80;;;;;;;17.73;100.00;99779.92;1754586;80;21515;-66
2022/06/15 05:16:24;;;;;;;3.05;1.30;;;;;;;18.03;100.00;99785.11;1689737;83;21555;-67
2022/06/15 05:18:51;;;;;;;4.35;0.90;;;;;;;18.35;100.00;99785.29;1742168;80;21098;-67
2022/06/15 05:21:20;;;;;;;3.02;1.00;;;;;;;18.63;100.00;99788.03;1705643;82;21379;-66
2022/06/15 05:23:46;;;;;;;4.42;0.88;;;;;;;18.83;100.00;99792.07;1661650;85;21083;-66
2022/06/15 05:26:15;;;;;;;2.17;0.90;;;;;;;18.94;100.00;99793.94;1742306;80;21475;-69
2022/06/15 05:28:44;;;;;;;2.58;0.85;;;;;;;19.25;100.00;99790.40;1741307;80;21048;-65
2022/06/15 05:31:16;;;;;;;3.45;0.80;;;;;;;19.48;100.00;99788.28;1729089;81;20979;-66
2022/06/15 05:33:43;;;;;;;4.83;1.12;;;;;;;19.72;100.00;99785.75;1749102;80;21063;-66
2022/06/15 05:36:15;;;;;;;3.77;0.72;;;;;;;19.67;100.00;99796.97;1709720;82;21055;-66
2022/06/15 05:38:44;;;;;;;4.25;0.98;;;;;;;19.60;100.00;99792.53;1693072;83;21497;-66
2022/06/15 05:41:10;;;;;;;1.95;0.68;;;;;;;19.79;100.00;99796.53;1689477;83;21515;-66
2022/06/15 05:43:55;;;;;;;2.92;1.00;;;;;;;20.10;100.00;99796.22;1734691;81;21115;-67
2022/06/15 05:46:26;;;;;;;3.42;1.02;;;;;;;20.18;100.00;99787.08;1745585;81;21035;-67
2022/06/15 05:48:54;;;;;;;3.90;0.98;;;;;;;20.05;100.00;99782.58;1742466;80;21569;-68
2022/06/15 05:51:22;;;;;;;3.25;0.95;;;;;;;20.09;100.00;99784.10;1756829;80;21019;-66
2022/06/15 05:53:49;;;;;;;3.20;0.80;;;;;;;20.45;100.00;99783.02;1752493;81;21139;-67
2022/06/15 05:56:17;;;;;;;4.83;1.00;;;;;;;20.62;100.00;99786.23;1750351;81;21062;-67
2022/06/15 05:58:44;;;;;;;5.10;1.12;;;;;;;20.70;100.00;99786.73;1743238;82;21129;-67
2022/06/15 06:01:15;;;;;;;5.70;1.05;;;;;;;20.70;100.00;99788.94;1746465;80;20988;-66
2022/06/15 06:03:41;;;;;;;3.67;0.72;;;;;;;20.71;100.00;99802.20;1719052;82;21492;-66
2022/06/15 06:06:09;;;;;;;2.00;0.98;;;;;;;20.90;100.00;99794.24;1746284;81;21043;-67
2022/06/15 06:08:36;;;;;;;3.33;0.95;;;;;;;21.00;100.00;99788.29;1747052;81;21059;-67
2022/06/15 06:11:03;;;;;;;5.25;1.05;;;;;;;21.08;100.00;99795.68;1743581;80;21067;-67
2022/06/15 06:13:29;;;;;;;5.10;1.35;;;;;;;21.18;97.11;99791.73;1734963;81;21110;-67
2022/06/15 06:15:57;;;;;;;3.45;1.00;;;;;;;21.18;100.00;99791.16;1754661;81;21031;-68
2022/06/15 06:18:25;;;;;;;2.85;0.98;;;;;;;21.36;100.00;99787.64;1741810;81;21071;-66
2022/06/15 06:20:53;;;;;;;4.15;0.98;;;;;;;21.44;94.64;99789.48;1741794;80;20972;-66
2022/06/15 06:23:19;;;;;;;3.67;0.90;;;;;;;21.44;96.72;99787.29;1744023;81;21067;-66
2022/06/15 06:25:50;;;;;;;2.77;0.80;;;;;;;21.34;96.07;99787.16;1740894;80;21551;-66
2022/06/15 06:28:29;;;;;;;5.33;1.50;;;;;;;21.32;100.00;99788.91;1740519;80;21557;-66
2022/06/15 06:31:01;;;;;;;2.70;0.75;;;;;;;21.54;90.53;99791.81;1741347;80;21071;-68
2022/06/15 06:33:29;;;;;;;3.37;0.80;;;;;;;21.39;88.23;99792.49;1743715;80;21050;-67
2022/06/15 06:35:57;;;;;;;4.42;0.70;;;;;;;21.29;90.02;99791.55;1750944;80;20992;-66
2022/06/15 06:38:24;;;;;;;3.42;0.70;;;;;;;21.43;93.91;99795.39;1740875;81;21602;-66
2022/06/15 06:40:53;;;;;;;3.10;0.70;;;;;;;21.75;92.61;99792.55;1744731;80;21015;-65
2022/06/15 06:43:20;;;;;;;4.30;0.80;;;;;;;21.65;91.04;99786.64;1728223;80;21072;-66
2022/06/15 06:45:47;;;;;;;5.33;1.00;;;;;;;21.65;91.04;99786.64;1742367;81;21053;-66
2022/06/15 06:48:13;;;;;;;2.90;0.80;;;;;;;21.96;88.03;99793.89;1746437;82;21051;-66
2022/06/15 06:50:40;;;;;;;6.00;1.20;;;;;;;21.96;88.03;99793.89;1737247;80;21055;-66
2022/06/15 06:53:08;;;;;;;3.45;0.80;;;;;;;22.14;85.86;99780.00;1728646;80;21067;-66
2022/06/15 06:55:36;;;;;;;3.02;0.78;;;;;;;21.94;80.36;99800.34;1754636;80;21007;-64
2022/06/15 06:58:02;;;;;;;2.98;0.60;;;;;;;21.61;83.29;99788.51;1753583;80;21068;-65
2022/06/15 07:00:30;;;;;;;2.55;0.80;;;;;;;21.38;81.96;99786.72;1753617;80;21039;-67
2022/06/15 07:03:01;;;;;;;2.95;1.20;;;;;;;21.24;87.52;99795.33;1757278;80;21572;-68
2022/06/15 07:08:30;;;;;;;2.85;0.57;;;;;;;21.76;93.53;99785.05;1779440;79;22931;-65
2022/06/15 07:10:57;;;;;;;2.20;0.70;;;;;;;22.14;89.93;99798.02;1732964;81;20994;-64
2022/06/15 07:13:26;;;;;;;2.42;0.60;;;;;;;22.51;83.75;99788.28;1737663;81;21927;-65
2022/06/15 07:15:52;;;;;;;2.35;0.60;;;;;;;22.60;76.64;99799.47;1737590;81;21352;-67
2022/06/15 07:18:21;;;;;;;2.05;0.50;;;;;;;22.41;74.59;99791.55;1722811;81;21049;-65
2022/06/15 07:20:49;;;;;;;2.95;0.65;;;;;;;22.33;75.99;99794.09;1731338;81;20978;-68
2022/06/15 07:23:15;;;;;;;2.47;0.85;;;;;;;22.51;78.04;99801.58;1727921;81;21095;-66
2022/06/15 07:25:41;;;;;;;3.72;0.82;;;;;;;22.71;73.20;99792.89;1734370;81;21046;-66
2022/06/15 07:28:08;;;;;;;4.00;0.80;;;;;;;22.78;77.25;99805.01;1725972;82;21529;-65
2022/06/15 07:30:35;;;;;;;3.72;0.70;;;;;;;23.04;75.72;99797.64;1737921;81;20971;-66
2022/06/15 07:33:01;;;;;;;2.05;0.70;;;;;;;23.15;72.07;99797.38;1722523;81;21112;-65
2022/06/15 07:35:31;;;;;;;2.20;0.60;;;;;;;22.97;71.05;99800.22;1703787;83;21578;-67
2022/06/15 07:37:57;;;;;;;2.83;0.70;;;;;;;22.80;73.86;99792.19;1738897;82;21018;-65
2022/06/15 07:40:24;;;;;;;2.62;0.75;;;;;;;22.78;72.02;99794.48;1741851;81;20988;-66
2022/06/15 07:42:52;;;;;;;2.17;0.50;;;;;;;22.73;70.92;99795.56;1733379;81;21050;-66
2022/06/15 07:45:19;;;;;;;3.45;0.53;;;;;;;22.58;67.42;99793.47;1740072;82;21005;-66
2022/06/15 07:50:32;;;;;;;3.05;0.78;;;;;;;22.27;67.34;99792.72;1735385;81;21521;-65
2022/06/15 07:53:01;;;;;;;2.33;0.70;;;;;;;22.43;75.86;99794.19;1735708;81;21070;-68
2022/06/15 07:55:32;;;;;;;3.62;0.62;;;;;;;22.90;72.10;99796.42;1726040;82;21002;-68
2022/06/15 07:58:00;;;;;;;4.40;0.70;;;;;;;23.11;66.58;99777.59;1737624;81;21070;-69
2022/06/15 08:00:28;;;;;;;2.98;0.62;;;;;;;23.47;65.52;99780.80;1741351;81;21047;-69
2022/06/15 08:02:55;;;;;;;1.47;0.60;;;;;;;23.64;59.65;99771.55;1736462;81;21096;-68
2022/06/15 08:05:22;;;;;;;4.45;0.93;;;;;;;23.50;61.78;99780.89;1740589;82;21827;-69
2022/06/15 08:07:49;;;;;;;4.67;0.75;;;;;;;23.55;59.18;99779.26;1727838;81;21071;-68
2022/06/15 08:10:18;;;;;;;2.25;0.45;;;;;;;23.55;61.65;99786.78;1727597;82;21034;-68
2022/06/15 08:12:46;;;;;;;2.42;0.62;;;;;;;23.49;59.80;99783.44;1728921;82;21049;-68
2022/06/15 08:15:13;;;;;;;3.58;0.65;;;;;;;23.23;58.52;99778.37;1718702;82;21040;-66
2022/06/15 08:17:54;;;;;;;2.22;0.60;;;;;;;22.85;62.45;99796.08;1724532;81;21059;-68
2022/06/15 08:20:36;;;;;;;1.90;0.40;;;;;;;22.66;60.58;99782.02;1725595;83;21015;-68
2022/06/15 08:23:11;;;;;;;1.55;0.50;;;;;;;22.54;61.07;99788.39;1727648;81;21107;-67
2022/06/15 08:25:43;;;;;;;1.75;0.50;;;;;;;22.68;62.54;99780.53;1719574;82;21378;-67
2022/06/15 08:28:11;;;;;;;2.60;0.68;;;;;;;22.84;62.14;99779.22;1733305;82;21584;-67
2022/06/15 08:30:37;;;;;;;2.85;0.50;;;;;;;23.20;59.63;99785.21;1723747;82;20964;-68
2022/06/15 08:33:07;;;;;;;3.60;0.45;;;;;;;23.01;58.75;99789.22;1726105;81;21063;-69
2022/06/15 08:35:36;;;;;;;3.25;0.82;;;;;;;22.60;63.20;99782.83;1720483;81;21011;-69
2022/06/15 08:38:09;;;;;;;1.90;0.57;;;;;;;22.92;66.22;99785.19;1729884;82;21560;-68
2022/06/15 08:40:58;;;;;;;2.33;1.02;;;;;;;23.22;62.37;99786.47;1729932;82;21465;-67
2022/06/15 08:43:51;;;;;;;2.47;0.60;;;;;;;22.94;63.88;99793.17;1724483;82;21054;-68
2022/06/15 08:46:47;;;;;;;3.22;0.68;;;;;;;22.52;63.21;99795.45;1726313;83;21048;-67
2022/06/15 08:49:44;;;;;;;2.25;0.70;;;;;;;22.05;65.13;99790.98;1706143;83;21055;-67
2022/06/15 08:52:19;;;;;;;1.85;0.40;;;;;;;21.72;64.44;99791.04;1721333;81;21109;-67
2022/06/15 08:55:07;;;;;;;1.92;0.70;;;;;;;21.61;64.26;99781.58;1728413;83;21568;-68
2022/06/15 08:57:51;;;;;;;3.30;1.00;;;;;;;21.67;65.21;99777.43;1735816;83;21081;-68
2022/06/15 09:00:28;;;;;;;2.55;0.80;;;;;;;21.55;66.10;99780.16;1730262;81;21002;-67
2022/06/15 09:03:15;;;;;;;2.95;0.62;;;;;;;21.35;69.90;99784.63;1724321;82;21089;-69
2022/06/15 09:06:01;;;;;;;3.80;0.47;;;;;;;21.10;68.05;99785.66;1728090;81;21900;-67
2022/06/15 09:09:09;;;;;;;2.27;0.80;;;;;;;20.76;70.74;99787.58;1710716;82;21181;-65
2022/06/15 09:15:10;;;;;;;4.87;1.80;;;;;;;20.37;75.38;99774.80;1700568;83;21065;-68
2022/06/15 09:17:37;;;;;;;;;;;;;;;20.71;80.37;99779.50;1722345;83;21050;-65
2022/06/15 09:20:20;;;;;;;5.00;1.62;;;;;;;20.94;78.11;99770.25;1710484;83;20140;-66
2022/06/15 09:22:50;;;;;;;2.58;1.20;;;;;;;20.92;72.49;99778.09;1686148;83;21043;-66
2022/06/15 09:25:31;;;;;;;2.05;0.70;;;;;;;20.83;71.47;99782.91;1711210;83;21018;-65
2022/06/15 09:28:07;;;;;;;1.95;0.55;;;;;;;20.78;71.40;99785.88;1719924;83;21069;-67
2022/06/15 09:30:36;;;;;;;2.30;0.57;;;;;;;20.73;70.78;99779.14;1682607;83;21046;-67
2022/06/15 09:33:16;;;;;;;4.92;1.60;;;;;;;20.53;70.57;99775.24;1692402;83;21534;-67
2022/06/15 09:36:02;;;;;;;2.22;0.60;;;;;;;20.49;73.02;99771.53;1719975;83;21038;-67
2022/06/15 09:38:25;;;;;;;2.67;1.10;;;;;;;20.45;73.24;99771.96;1704977;83;21053;-65
2022/06/15 09:40:55;;;;;;;2.65;0.70;;;;;;;20.53;80.12;99771.66;1688500;83;21043;-67
2022/06/15 09:43:48;;;;;;;3.55;0.55;;;;;;;20.80;78.54;99778.03;1684452;83;21679;-68
2022/06/15 09:46:23;;;;;;;3.62;0.90;;;;;;;21.01;72.48;99760.83;1719556;83;21026;-66
2022/06/15 09:49:14;;;;;;;1.30;0.50;;;;;;;21.13;74.62;99765.06;1687584;83;21105;-69
2022/06/15 09:52:22;;;;;;;2.70;0.50;;;;;;;21.19;69.11;99765.08;1702135;83;21026;-67
2022/06/15 09:55:21;;;;;;;4.28;0.50;;;;;;;21.08;76.20;99765.23;1619064;87;21403;-68
2022/06/15 09:57:49;;;;;;;1.35;0.57;;;;;;;21.25;71.97;99765.69;1613088;87;21219;-66
2022/06/15 10:00:17;;;;;;;1.67;0.40;;;;;;;21.43;67.73;99771.84;1664895;83;21072;-68
2022/06/15 10:02:49;;;;;;;3.47;0.40;;;;;;;21.45;58.80;99770.34;1689137;83;21178;-68
2022/06/15 10:05:27;;;;;;;1.12;0.30;;;;;;;21.25;59.67;99765.69;1711631;83;21035;-66
2022/06/15 10:07:54;;;;;;;2.47;0.50;;;;;;;21.24;63.74;99760.72;1704514;82;21090;-70
2022/06/15 10:10:28;;;;;;;3.67;0.50;;;;;;;21.33;63.57;99746.77;1716361;82;21534;-68
2022/06/15 10:13:07;;;;;;;2.05;0.50;;;;;;;21.44;60.46;99752.67;1730911;83;21061;-68
2022/06/15 10:15:45;;;;;;;3.52;0.47;;;;;;;21.50;60.70;99755.48;1720835;83;21003;-67
2022/06/15 10:18:37;;;;;;;2.45;0.40;;;;;;;21.31;63.19;99760.16;1722308;81;21074;-65
2022/06/15 10:21:18;;;;;;;0.98;0.30;;;;;;;21.14;62.40;99772.23;1721814;82;21074;-66
2022/06/15 10:24:00;;;;;;;0.72;0.30;;;;;;;21.09;66.07;99757.17;1732565;81;21116;-67
2022/06/15 10:26:38;;;;;;;2.50;0.50;;;;;;;21.20;58.30;99750.66;1724360;81;21101;-68
2022/06/15 10:29:20;;;;;;;3.52;0.40;;;;;;;21.22;55.62;99753.31;1713917;82;21121;-69
2022/06/15 10:32:11;;;;;;;1.55;0.50;;;;;;;21.09;54.78;99743.34;1722677;83;20999;-67
2022/06/15 10:34:52;;;;;;;2.67;0.60;;;;;;;20.90;59.46;99749.97;1711722;83;21573;-68
2022/06/15 10:37:45;;;;;;;1.90;0.40;;;;;;;20.77;60.72;99749.66;1714212;81;21027;-69
2022/06/15 10:40:32;;;;;;;1.87;0.47;;;;;;;20.80;66.42;99745.64;1725789;82;21443;-67
2022/06/15 10:43:31;;;;;;;2.45;0.40;;;;;;;21.12;68.75;99748.78;1718828;82;21223;-67
2022/06/15 10:46:04;;;;;;;2.72;0.30;;;;;;;21.34;64.90;99756.13;1723109;81;20993;-66
2022/06/15 10:48:41;;;;;;;2.05;0.40;;;;;;;21.44;65.26;99746.56;1716380;82;21130;-68
2022/06/15 10:51:13;;;;;;;1.32;0.33;;;;;;;21.53;63.82;99749.25;1697640;83;20999;-67
2022/06/15 10:53:51;;;;;;;1.98;0.47;;;;;;;21.52;59.46;99745.66;1708283;82;21107;-69
2022/06/15 11:02:10;;;;;;;2.50;0.40;;;;;;;21.40;64.55;99736.54;1717675;83;20981;-66
2022/06/15 11:04:51;;;;;;;1.60;0.40;;;;;;;21.61;57.79;99738.05;1724620;81;21066;-68
2022/06/15 11:07:30;;;;;;;2.22;0.40;;;;;;;21.69;53.90;99734.36;1712412;82;21530;-68
2022/06/15 11:10:09;;;;;;;2.37;0.30;;;;;;;21.72;54.33;99735.63;1738019;82;21068;-66
2022/06/15 11:12:43;;;;;;;1.75;0.45;;;;;;;21.74;54.52;99739.69;1730300;81;21086;-67
2022/06/15 11:18:33;;;;;;;2.08;0.70;;;;;;;22.11;66.62;99727.22;1731887;81;21086;-66
2022/06/15 11:21:23;;;;;;;7.78;5.30;;;;;;;22.22;58.53;99726.40;1741671;82;21021;-67
2022/06/15 11:24:10;;;;;;;5.80;2.17;;;;;;;22.22;62.28;99740.27;1735983;81;21101;-66
2022/06/15 11:27:03;;;;;;;2.17;0.47;;;;;;;22.36;59.67;99728.80;1725262;83;21526;-68
2022/06/15 11:30:05;;;;;;;2.05;0.42;;;;;;;22.47;55.25;99729.11;1738542;82;21025;-68
2022/06/15 11:32:52;;;;;;;1.72;0.62;;;;;;;22.39;57.23;99735.02;1741095;82;21073;-65
2022/06/15 11:35:26;;;;;;;5.35;0.55;;;;;;;22.18;58.90;99742.11;1727927;81;20991;-67
2022/06/15 11:38:20;;;;;;;1.47;0.40;;;;;;;22.04;57.54;99735.31;1726197;82;21097;-69
2022/06/15 11:40:59;;;;;;;1.82;0.50;;;;;;;21.99;57.84;99728.06;1736856;82;21529;-65
2022/06/15 11:43:36;;;;;;;2.45;0.40;;;;;;;22.05;58.38;99723.89;1728243;81;21085;-67
2022/06/15 11:46:27;;;;;;;3.25;0.40;;;;;;;22.29;57.63;99723.84;1725376;83;20983;-67
2022/06/15 11:49:26;;;;;;;1.87;0.30;;;;;;;22.42;53.45;99723.25;1736242;81;21038;-67
2022/06/15 11:52:22;;;;;;;1.17;0.40;;;;;;;22.46;54.04;99720.59;1729790;82;21533;-67
2022/06/15 11:55:01;;;;;;;2.30;0.40;;;;;;;22.42;54.43;99723.25;1728956;83;21739;-68
2022/06/15 11:58:23;;;;;;;3.05;0.50;;;;;;;22.41;53.72;99723.59;1731413;81;21023;-68
2022/06/15 12:01:40;;;;;;;6.75;0.50;;;;;;;22.30;51.62;99726.05;1730812;82;21050;-66
2022/06/15 12:04:40;;;;;;;1.77;0.40;;;;;;;21.94;50.37;99728.28;1742947;82;21048;-66
2022/06/15 12:07:19;;;;;;;1.07;0.50;;;;;;;21.69;53.76;99729.40;1736507;81;21051;-67
2022/06/15 12:10:14;;;;;;;2.75;0.53;;;;;;;21.64;55.89;99722.14;1721472;82;21004;-67
2022/06/15 12:12:46;;;;;;;2.85;0.60;;;;;;;21.59;57.24;99722.93;1711388;82;21083;-65
2022/06/15 12:15:39;;;;;;;1.30;0.40;;;;;;;21.69;63.05;99719.70;1727256;81;21047;-63
2022/06/15 12:18:26;;;;;;;1.70;0.30;;;;;;;21.84;56.72;99716.25;1726777;81;21094;-65
2022/06/15 12:21:26;;;;;;;1.42;0.40;;;;;;;21.70;58.33;99721.33;1734699;82;21086;-62
2022/06/15 12:24:19;;;;;;;1.37;0.37;;;;;;;21.58;58.00;99717.97;1725338;82;21113;-66